createdAt,value
2023-05-21T00:00:59.421Z,11.7880
2023-05-21T00:02:01.917Z,11.7204
2023-05-21T00:03:04.229Z,11.6896
2023-05-21T00:04:05.619Z,11.6241
2023-05-21T00:05:07.439Z,11.5351
2023-05-21T00:06:09.955Z,11.5340
2023-05-21T00:07:11.607Z,11.6125
2023-05-21T00:08:12.652Z,11.5847
2023-05-21T00:09:14.287Z,11.5729
2023-05-21T00:10:16.082Z,11.5648
2023-05-21T00:11:16.977Z,11.5822
2023-05-21T00:12:18.145Z,11.5168
2023-05-21T00:13:20.105Z,11.5610
2023-05-21T00:14:21.445Z,11.6225
2023-05-21T00:15:22.048Z,11.6300
2023-05-21T00:16:23.129Z,11.6744
2023-05-21T00:17:24.377Z,11.6788
2023-05-21T00:19:25.399Z,11.9243
2023-05-21T00:20:26.930Z,11.9899
2023-05-21T00:21:28.873Z,12.0863
2023-05-21T00:23:30.980Z,12.0510
2023-05-21T00:24:33.206Z,11.9902
2023-05-21T00:25:34.461Z,11.8996
2023-05-21T00:26:35.573Z,11.8120
2023-05-21T00:28:39.440Z,11.6698
2023-05-21T00:31:40.290Z,11.9899
2023-05-21T00:32:41.291Z,11.8463
2023-05-21T00:33:43.972Z,11.7867
2023-05-21T00:34:44.143Z,11.7984
2023-05-21T00:35:45.897Z,11.7540
2023-05-21T00:36:47.090Z,11.9886
2023-05-21T00:37:48.274Z,12.1100
2023-05-21T00:38:51.017Z,12.1525
2023-05-21T00:39:51.919Z,12.2011
2023-05-21T00:40:52.943Z,12.1870
2023-05-21T00:41:54.764Z,12.0084
2023-05-21T00:42:56.114Z,11.9804
2023-05-21T00:43:58.210Z,11.9006
2023-05-21T00:44:59.841Z,11.7824
2023-05-21T00:46:00.743Z,11.7178
2023-05-21T00:47:02.529Z,11.6810
2023-05-21T00:48:03.853Z,11.7277
2023-05-21T00:49:05.032Z,11.7671
2023-05-21T00:50:06.965Z,11.7349
2023-05-21T00:51:09.430Z,11.7962
2023-05-21T00:52:10.460Z,11.8521
2023-05-21T00:53:11.505Z,11.8067
2023-05-21T00:54:13.298Z,11.9349
2023-05-21T00:55:15.251Z,11.9855
2023-05-21T00:56:16.292Z,12.0291
2023-05-21T00:57:16.924Z,11.8968
2023-05-21T00:58:19.154Z,11.7939
2023-05-21T00:59:20.367Z,11.8328
2023-05-21T01:00:21.697Z,11.8514
2023-05-21T01:01:23.832Z,11.9590
2023-05-21T01:02:25.744Z,12.0390
2023-05-21T01:03:27.292Z,12.0851
2023-05-21T01:04:29.204Z,12.1733
2023-05-21T01:05:30.847Z,12.1899
2023-05-21T01:06:32.522Z,12.1885
2023-05-21T01:07:33.512Z,12.1632
2023-05-21T01:08:35.009Z,12.1735
2023-05-21T01:09:37.425Z,12.1811
2023-05-21T01:18:46.235Z,12.0601
2023-05-21T01:19:46.611Z,12.0627
2023-05-21T01:23:48.022Z,12.0661
2023-05-21T01:24:49.630Z,12.0284
2023-05-21T01:28:52.778Z,12.0684
2023-05-21T01:29:53.668Z,12.0365
2023-05-21T01:30:55.868Z,11.9799
2023-05-21T01:31:58.077Z,12.0389
2023-05-21T01:32:59.345Z,12.0191
2023-05-21T01:34:01.706Z,12.0126
2023-05-21T01:37:05.221Z,12.0134
2023-05-21T01:38:07.109Z,12.0314
2023-05-21T01:40:08.093Z,11.9770
2023-05-21T01:41:09.994Z,11.9412
2023-05-21T01:42:10.877Z,11.9586
2023-05-21T01:43:11.984Z,11.9306
2023-05-21T01:44:13.743Z,11.9426
2023-05-21T01:45:15.652Z,11.9889
2023-05-21T01:46:16.689Z,11.9719
2023-05-21T01:47:17.700Z,11.9887
2023-05-21T01:48:18.689Z,11.9767
2023-05-21T01:49:20.570Z,11.9171
2023-05-21T01:54:24.285Z,11.9038
2023-05-21T01:55:25.485Z,11.9123
2023-05-21T01:56:27.347Z,11.8894
2023-05-21T01:57:28.310Z,11.8763
2023-05-21T01:58:30.542Z,11.8626
2023-05-21T01:59:31.769Z,11.8503
2023-05-21T02:00:33.465Z,11.8130
2023-05-21T02:01:36.019Z,11.8161
2023-05-21T02:02:36.712Z,11.8451
2023-05-21T02:03:36.789Z,11.8401
2023-05-21T02:04:39.297Z,11.8218
2023-05-21T02:05:39.585Z,11.7709
2023-05-21T02:06:40.592Z,11.7565
2023-05-21T02:07:42.501Z,11.7913
2023-05-21T02:08:43.301Z,11.8041
2023-05-21T02:15:51.270Z,11.7838
2023-05-21T02:16:53.394Z,11.8002
2023-05-21T02:17:55.966Z,11.7440
2023-05-21T02:20:58.235Z,11.6481
2023-05-21T02:21:59.405Z,11.6869
2023-05-21T02:23:00.334Z,11.6593
2023-05-21T02:24:02.406Z,11.6249
2023-05-21T02:25:06.979Z,11.7776
2023-05-21T02:27:04.672Z,11.8837
2023-05-21T02:28:06.845Z,11.9518
2023-05-21T02:29:08.143Z,11.9062
2023-05-21T02:31:11.473Z,11.7379
2023-05-21T02:34:14.275Z,11.6942
2023-05-21T02:35:15.462Z,11.6930
2023-05-21T02:36:16.436Z,11.8079
2023-05-21T02:37:18.886Z,11.8615
2023-05-21T02:38:20.496Z,11.7875
2023-05-21T02:39:21.982Z,11.8060
2023-05-21T02:40:22.356Z,11.7778
2023-05-21T02:41:23.480Z,11.8183
2023-05-21T02:42:25.124Z,11.7685
2023-05-21T02:43:26.112Z,11.7322
2023-05-21T02:44:28.288Z,11.7495
2023-05-21T02:45:29.597Z,11.7562
2023-05-21T02:46:30.745Z,11.6011
2023-05-21T02:47:32.678Z,11.5460
2023-05-21T02:48:33.519Z,11.6785
2023-05-21T02:49:35.538Z,11.7383
2023-05-21T02:57:43.679Z,11.5156
2023-05-21T02:58:45.712Z,11.4025
2023-05-21T02:59:47.287Z,11.3637
2023-05-21T03:00:48.357Z,11.2809
2023-05-21T03:01:50.760Z,11.2493
2023-05-21T03:02:50.943Z,11.4852
2023-05-21T03:03:52.610Z,11.6171
2023-05-21T03:04:54.350Z,11.6645
2023-05-21T03:05:56.187Z,11.6214
2023-05-21T03:06:56.931Z,11.4958
2023-05-21T03:07:58.352Z,11.5362
2023-05-21T03:09:00.577Z,11.5946
2023-05-21T03:10:01.606Z,11.6156
2023-05-21T03:11:03.177Z,11.5705
2023-05-21T03:12:04.711Z,11.5290
2023-05-21T03:13:08.195Z,11.5766
2023-05-21T03:14:07.856Z,11.5641
2023-05-21T03:17:40.370Z,11.6033
2023-05-21T03:18:40.549Z,11.5220
2023-05-21T03:19:41.828Z,11.5687
2023-05-21T03:20:42.794Z,11.4671
2023-05-21T03:21:44.053Z,11.3428
2023-05-21T03:23:46.688Z,10.9871
2023-05-21T03:24:48.001Z,10.8230
2023-05-21T03:25:49.525Z,10.8231
2023-05-21T03:26:50.586Z,10.9814
2023-05-21T03:27:51.549Z,11.0865
2023-05-21T03:28:53.070Z,10.9467
2023-05-21T03:29:55.020Z,10.8232
2023-05-21T03:30:56.447Z,10.8229
2023-05-21T03:31:57.735Z,10.9369
2023-05-21T03:32:59.202Z,10.7986
2023-05-21T03:34:00.671Z,10.6952
2023-05-21T03:35:01.869Z,10.5787
2023-05-21T03:36:03.487Z,10.4170
2023-05-21T03:37:04.498Z,10.3896
2023-05-21T03:38:05.650Z,10.5339
2023-05-21T03:39:06.953Z,10.3261
2023-05-21T03:40:08.336Z,10.4316
2023-05-21T03:41:10.435Z,10.5157
2023-05-21T03:42:10.474Z,10.6948
2023-05-21T03:43:11.554Z,10.8381
2023-05-21T03:44:12.222Z,10.9721
2023-05-21T03:45:12.922Z,10.9695
2023-05-21T03:46:13.866Z,11.0139
2023-05-21T03:47:14.110Z,10.9563
2023-05-21T03:48:15.315Z,10.8710
2023-05-21T03:49:16.955Z,10.7832
2023-05-21T03:50:17.964Z,10.8411
2023-05-21T03:51:18.511Z,10.8967
2023-05-21T03:52:20.766Z,10.9139
2023-05-21T03:53:21.391Z,11.0309
2023-05-21T03:54:22.595Z,10.9854
2023-05-21T03:55:23.741Z,11.2348
2023-05-21T03:56:25.184Z,11.1444
2023-05-21T03:57:26.264Z,11.0118
2023-05-21T03:58:27.878Z,10.7541
2023-05-21T03:59:30.194Z,10.3205
2023-05-21T04:01:30.469Z,10.6791
2023-05-21T04:02:32.028Z,10.9766
2023-05-21T04:10:41.227Z,11.2240
2023-05-21T04:11:42.133Z,11.1194
2023-05-21T04:12:43.700Z,11.2762
2023-05-21T04:13:45.412Z,11.3380
2023-05-21T04:15:47.113Z,11.4226
2023-05-21T04:16:49.725Z,11.4048
2023-05-21T04:22:56.654Z,11.4872
2023-05-21T04:23:56.730Z,11.4809
2023-05-21T04:25:57.010Z,11.4737
2023-05-21T04:26:58.506Z,11.4509
2023-05-21T04:28:00.055Z,11.4520
2023-05-21T04:29:02.475Z,11.5055
2023-05-21T04:30:04.025Z,11.4891
2023-05-21T04:31:06.209Z,11.4718
2023-05-21T04:32:06.241Z,11.4438
2023-05-21T04:33:08.472Z,11.4513
2023-05-21T04:34:10.422Z,11.5488
2023-05-21T04:36:10.621Z,11.5682
2023-05-21T04:37:12.337Z,11.6834
2023-05-21T04:38:14.598Z,11.6964
2023-05-21T04:39:15.247Z,11.7297
2023-05-21T04:40:17.079Z,11.7779
2023-05-21T04:41:19.118Z,11.7894
2023-05-21T04:42:20.332Z,11.6820
2023-05-21T04:43:23.114Z,11.5958
2023-05-21T04:44:25.268Z,11.6413
2023-05-21T04:50:29.835Z,11.9541
2023-05-21T04:51:31.179Z,12.0022
2023-05-21T04:52:32.958Z,12.0245
2023-05-21T04:53:34.955Z,12.0314
2023-05-21T04:54:36.156Z,12.0235
2023-05-21T04:55:38.429Z,11.9987
2023-05-21T04:58:40.093Z,12.0903
2023-05-21T04:59:40.980Z,12.1315
2023-05-21T05:00:41.853Z,12.1877
2023-05-21T05:01:42.915Z,12.2048
2023-05-21T05:02:44.806Z,12.2397
2023-05-21T05:03:46.462Z,12.3132
2023-05-21T05:04:48.095Z,12.3900
2023-05-21T05:05:49.253Z,12.4727
2023-05-21T05:06:49.486Z,12.4705
2023-05-21T05:07:49.492Z,12.5693
2023-05-21T05:08:51.020Z,12.6265
2023-05-21T05:09:53.252Z,12.5255
2023-05-21T05:10:54.247Z,12.4684
2023-05-21T05:11:56.750Z,12.4855
2023-05-21T05:12:58.922Z,12.5200
2023-05-21T05:14:00.222Z,12.5558
2023-05-21T05:15:02.659Z,12.4877
2023-05-21T05:25:15.206Z,12.4167
2023-05-21T05:26:16.692Z,12.4402
2023-05-21T05:27:19.070Z,12.4233
2023-05-21T05:29:20.718Z,12.4825
2023-05-21T05:30:21.670Z,12.4675
2023-05-21T05:31:22.735Z,12.5510
2023-05-21T05:32:24.474Z,12.5880
2023-05-21T05:33:26.096Z,12.6113
2023-05-21T05:34:28.112Z,12.6609
2023-05-21T05:35:29.080Z,12.6224
2023-05-21T05:36:29.546Z,12.7301
2023-05-21T05:37:31.940Z,12.8437
2023-05-21T05:38:32.927Z,12.9292
2023-05-21T05:39:33.925Z,13.0222
2023-05-21T05:40:35.657Z,12.9791
2023-05-21T05:41:36.803Z,12.9501
2023-05-21T05:42:37.718Z,12.9246
2023-05-21T05:43:38.699Z,12.8944
2023-05-21T05:44:40.774Z,12.8182
2023-05-21T05:49:45.000Z,12.9605
2023-05-21T05:50:45.958Z,13.0358
2023-05-21T05:51:46.747Z,13.1077
2023-05-21T05:52:48.290Z,13.1329
2023-05-21T05:54:50.087Z,13.3409
2023-05-21T05:55:51.604Z,13.3686
2023-05-21T05:56:53.209Z,13.1395
2023-05-21T05:57:54.142Z,13.0750
2023-05-21T05:58:55.043Z,13.0091
2023-05-21T05:59:56.666Z,13.0819
2023-05-21T06:00:57.584Z,13.2445
2023-05-21T06:01:58.103Z,13.3157
2023-05-21T06:02:59.161Z,13.3770
2023-05-21T06:04:00.413Z,13.4525
2023-05-21T06:05:01.959Z,13.6117
2023-05-21T06:06:04.004Z,13.5986
2023-05-21T06:14:10.232Z,13.7440
2023-05-21T06:15:15.931Z,13.8832
2023-05-21T06:18:13.771Z,13.5312
2023-05-21T06:19:14.924Z,13.6017
2023-05-21T06:20:17.152Z,13.7199
2023-05-21T06:21:17.277Z,13.7153
2023-05-21T06:22:18.398Z,13.9546
2023-05-21T06:23:19.812Z,14.0868
2023-05-21T06:24:21.056Z,14.2416
2023-05-21T06:25:21.608Z,14.1763
2023-05-21T06:26:23.056Z,14.4303
2023-05-21T06:27:25.918Z,14.5083
2023-05-21T06:28:27.225Z,14.7999
2023-05-21T06:29:28.605Z,15.0401
2023-05-21T06:30:30.716Z,15.1722
2023-05-21T06:31:32.470Z,15.3875
2023-05-21T06:32:35.253Z,15.2372
2023-05-21T06:41:44.128Z,14.9345
2023-05-21T06:42:45.468Z,14.8754
2023-05-21T06:43:47.034Z,14.8701
2023-05-21T06:44:49.172Z,14.5674
2023-05-21T06:45:49.219Z,14.7289
2023-05-21T06:47:51.475Z,15.2115
2023-05-21T06:48:51.891Z,15.4084
2023-05-21T06:50:52.485Z,15.5891
2023-05-21T06:51:55.384Z,15.4641
2023-05-21T06:53:57.657Z,15.2936
2023-05-21T06:54:59.866Z,15.1361
2023-05-21T06:56:00.476Z,15.3900
2023-05-21T06:57:00.907Z,15.1862
2023-05-21T06:58:02.746Z,15.2629
2023-05-21T06:59:05.016Z,15.3806
2023-05-21T07:00:05.037Z,15.4359
2023-05-21T07:02:08.145Z,15.5654
2023-05-21T07:03:09.903Z,15.6067
2023-05-21T07:04:10.664Z,15.3946
2023-05-21T07:05:12.740Z,15.5797
2023-05-21T07:06:12.878Z,15.3786
2023-05-21T07:07:14.619Z,15.2184
2023-05-21T07:08:17.100Z,15.0645
2023-05-21T07:09:17.882Z,15.2037
2023-05-21T07:12:22.100Z,15.2532
2023-05-21T07:13:22.654Z,15.1694
2023-05-21T07:19:31.088Z,16.6973
2023-05-21T07:25:38.469Z,16.1097
2023-05-21T07:26:39.685Z,16.0691
2023-05-21T07:27:40.467Z,16.3382
2023-05-21T07:28:41.253Z,16.0678
2023-05-21T07:29:44.172Z,15.8014
2023-05-21T07:30:44.430Z,15.7804
2023-05-21T07:31:45.676Z,15.7683
2023-05-21T07:32:46.999Z,16.1494
2023-05-21T07:33:48.759Z,16.4212
2023-05-21T07:34:49.646Z,16.5753
2023-05-21T07:36:51.030Z,16.8489
2023-05-21T07:39:52.865Z,16.7394
2023-05-21T07:40:54.526Z,16.8326
2023-05-21T07:41:56.604Z,16.9675
2023-05-21T07:47:02.446Z,16.2942
2023-05-21T07:48:04.637Z,16.9931
2023-05-21T07:50:06.418Z,17.8965
2023-05-21T07:51:06.954Z,17.5487
2023-05-21T07:53:08.782Z,17.2787
2023-05-21T07:54:09.474Z,17.6288
2023-05-21T07:56:09.804Z,17.5015
2023-05-21T07:57:10.557Z,17.1317
2023-05-21T07:58:11.308Z,17.3699
2023-05-21T07:59:13.896Z,17.2253
2023-05-21T08:00:13.818Z,17.1915
2023-05-21T08:05:17.698Z,17.2159
2023-05-21T08:06:17.780Z,17.2754
2023-05-21T08:07:19.911Z,17.3957
2023-05-21T08:08:20.600Z,17.0911
2023-05-21T08:09:20.699Z,17.2508
2023-05-21T08:10:20.877Z,16.9298
2023-05-21T08:11:22.625Z,16.8811
2023-05-21T08:12:23.383Z,17.7317
2023-05-21T08:14:24.431Z,18.0583
2023-05-21T08:15:25.467Z,18.5462
2023-05-21T08:16:26.680Z,19.1788
2023-05-21T08:17:29.315Z,18.8745
2023-05-21T08:18:29.719Z,18.5429
2023-05-21T08:19:30.599Z,19.0593
2023-05-21T08:20:33.184Z,19.7323
2023-05-21T08:21:33.581Z,19.8214
2023-05-21T08:22:34.161Z,19.6214
2023-05-21T08:23:35.153Z,18.5805
2023-05-21T08:24:35.366Z,18.1809
2023-05-21T08:25:36.586Z,18.4698
2023-05-21T08:26:37.421Z,18.8550
2023-05-21T08:28:39.313Z,19.3679
2023-05-21T08:29:41.453Z,18.8076
2023-05-21T08:30:42.041Z,19.3851
2023-05-21T08:32:45.228Z,20.1770
2023-05-21T08:33:46.316Z,19.5740
2023-05-21T08:41:50.154Z,21.6358
2023-05-21T08:42:51.935Z,20.4969
2023-05-21T08:43:54.901Z,19.8654
2023-05-21T08:44:53.684Z,20.5577
2023-05-21T08:45:56.029Z,20.1960
2023-05-21T08:46:56.511Z,20.6507
2023-05-21T08:47:59.189Z,21.3149
2023-05-21T08:49:00.157Z,22.1993
2023-05-21T08:50:01.970Z,20.9811
2023-05-21T08:51:02.785Z,20.6733
2023-05-21T08:52:03.807Z,20.4843
2023-05-21T08:53:12.721Z,20.2889
2023-05-21T08:55:07.229Z,20.3465
2023-05-21T09:01:19.800Z,19.2504
2023-05-21T09:02:19.671Z,19.5298
2023-05-21T09:03:21.915Z,20.3512
2023-05-21T09:04:23.513Z,20.3639
2023-05-21T09:05:23.749Z,19.9825
2023-05-21T09:06:25.997Z,20.3387
2023-05-21T09:07:26.982Z,21.3685
2023-05-21T09:08:28.198Z,21.8485
2023-05-21T09:09:29.548Z,22.5281
2023-05-21T09:10:30.983Z,23.2075
2023-05-21T09:11:31.477Z,22.2335
2023-05-21T09:12:33.610Z,21.9813
2023-05-21T09:13:39.266Z,22.6425
2023-05-21T09:21:42.911Z,23.4360
2023-05-21T09:22:44.157Z,23.0448
2023-05-21T09:24:46.076Z,22.8050
2023-05-21T09:25:47.369Z,22.2296
2023-05-21T09:26:47.701Z,21.3275
2023-05-21T09:27:49.970Z,20.9994
2023-05-21T09:28:51.719Z,20.6663
2023-05-21T09:29:53.359Z,20.8700
2023-05-21T09:30:59.976Z,20.0896
2023-05-21T09:38:04.122Z,22.4051
2023-05-21T09:39:06.252Z,23.3471
2023-05-21T09:40:07.625Z,23.6092
2023-05-21T09:41:09.638Z,24.3898
2023-05-21T09:42:11.909Z,24.6649
2023-05-21T09:43:13.072Z,24.8624
2023-05-21T09:44:15.650Z,23.6743
2023-05-21T09:45:17.614Z,21.9853
2023-05-21T09:47:19.543Z,21.6209
2023-05-21T09:48:19.901Z,22.5905
2023-05-21T09:49:20.988Z,21.7045
2023-05-21T09:50:23.247Z,22.3340
2023-05-21T09:51:23.463Z,22.4906
2023-05-21T09:52:23.589Z,22.2634
2023-05-21T09:53:25.225Z,22.3124
2023-05-21T09:54:26.625Z,21.7604
2023-05-21T09:55:28.325Z,21.8201
2023-05-21T09:56:29.639Z,22.4212
2023-05-21T09:57:29.670Z,22.4186
2023-05-21T09:58:31.549Z,22.2032
2023-05-21T09:59:33.472Z,21.9355
2023-05-21T10:00:34.155Z,21.7504
2023-05-21T10:01:35.647Z,22.1263
2023-05-21T10:02:38.153Z,22.5402
2023-05-21T10:03:39.989Z,23.1949
2023-05-21T10:04:41.321Z,23.0101
2023-05-21T10:05:42.406Z,23.4897
2023-05-21T10:06:44.324Z,23.9067
2023-05-21T10:07:46.403Z,24.6141
2023-05-21T10:10:49.211Z,24.2332
2023-05-21T10:11:49.474Z,24.2382
2023-05-21T10:13:50.986Z,23.7918
2023-05-21T10:15:51.888Z,23.3352
2023-05-21T10:16:53.942Z,23.1894
2023-05-21T10:17:55.533Z,22.9057
2023-05-21T10:18:56.707Z,22.9146
2023-05-21T10:19:58.133Z,23.1692
2023-05-21T10:20:58.385Z,22.1320
2023-05-21T10:21:59.339Z,21.7674
2023-05-21T10:23:00.606Z,22.0077
2023-05-21T10:24:01.194Z,23.1558
2023-05-21T10:25:01.782Z,23.5475
2023-05-21T10:26:04.019Z,23.6262
2023-05-21T10:27:04.097Z,23.4772
2023-05-21T10:28:07.166Z,22.1268
2023-05-21T10:30:11.827Z,22.3693
2023-05-21T10:35:12.376Z,22.4838
2023-05-21T10:36:13.922Z,22.4934
2023-05-21T10:38:15.252Z,23.0781
2023-05-21T10:41:29.918Z,24.1934
2023-05-21T10:49:33.106Z,24.8373
2023-05-21T10:50:33.712Z,24.6707
2023-05-21T10:51:35.075Z,25.1252
2023-05-21T10:52:37.245Z,26.1707
2023-05-21T10:53:37.935Z,26.0545
2023-05-21T10:54:38.541Z,26.0275
2023-05-21T10:55:38.958Z,25.7274
2023-05-21T10:56:39.644Z,24.9283
2023-05-21T10:57:41.911Z,23.1802
2023-05-21T11:00:43.730Z,22.3419
2023-05-21T11:01:45.858Z,22.3106
2023-05-21T11:02:46.759Z,21.8104
2023-05-21T11:04:48.082Z,23.4711
2023-05-21T11:05:48.920Z,23.9391
2023-05-21T11:06:49.762Z,23.8015
2023-05-21T11:07:51.207Z,24.0040
2023-05-21T11:08:53.788Z,24.4784
2023-05-21T11:09:53.015Z,24.8080
2023-05-21T11:10:53.262Z,25.0825
2023-05-21T11:16:59.715Z,22.8914
2023-05-21T11:18:01.775Z,23.3684
2023-05-21T11:19:03.855Z,22.8412
2023-05-21T11:21:04.567Z,22.6749
2023-05-21T11:22:07.235Z,23.1905
2023-05-21T11:23:07.745Z,24.1391
2023-05-21T11:24:08.040Z,23.6815
2023-05-21T11:25:10.003Z,23.2886
2023-05-21T11:26:12.105Z,22.4269
2023-05-21T11:28:14.107Z,23.8660
2023-05-21T11:29:15.031Z,23.1752
2023-05-21T11:30:16.170Z,23.2048
2023-05-21T11:31:17.829Z,23.2140
2023-05-21T11:32:19.085Z,23.5715
2023-05-21T11:33:20.299Z,22.8429
2023-05-21T11:34:22.747Z,23.4781
2023-05-21T11:35:22.835Z,24.2970
2023-05-21T11:36:24.071Z,25.1268
2023-05-21T11:37:27.543Z,24.3572
2023-05-21T11:39:27.681Z,24.6185
2023-05-21T11:47:36.728Z,24.7965
2023-05-21T11:49:37.223Z,26.0098
2023-05-21T11:50:38.304Z,25.5363
2023-05-21T11:51:38.369Z,25.3213
2023-05-21T11:52:39.797Z,25.3526
2023-05-21T11:53:44.028Z,25.2332
2023-05-21T11:54:41.995Z,24.9980
2023-05-21T11:56:45.846Z,25.6331
2023-05-21T11:57:47.293Z,25.4988
2023-05-21T11:58:48.111Z,24.2472
2023-05-21T11:59:49.985Z,25.8464
2023-05-21T12:00:52.635Z,25.1499
2023-05-21T12:01:54.134Z,24.9777
2023-05-21T12:02:54.895Z,25.9355
2023-05-21T12:03:56.858Z,25.8645
2023-05-21T12:04:59.150Z,24.8888
2023-05-21T12:06:00.456Z,25.3333
2023-05-21T12:07:01.738Z,26.0803
2023-05-21T12:08:02.126Z,26.1662
2023-05-21T12:09:03.186Z,25.8613
2023-05-21T12:10:04.171Z,25.7572
2023-05-21T12:11:04.858Z,26.5789
2023-05-21T12:15:06.501Z,24.8749
2023-05-21T12:16:07.323Z,25.8760
2023-05-21T12:18:07.451Z,25.5488
2023-05-21T12:19:07.633Z,25.3370
2023-05-21T12:20:08.326Z,25.3357
2023-05-21T12:22:11.408Z,25.1215
2023-05-21T12:23:13.438Z,25.5456
2023-05-21T12:24:14.152Z,25.4709
2023-05-21T12:25:15.257Z,25.1012
2023-05-21T12:26:18.178Z,24.3964
2023-05-21T12:27:19.986Z,25.6043
2023-05-21T12:33:25.323Z,25.9578
2023-05-21T12:34:28.036Z,25.7443
2023-05-21T12:37:31.006Z,24.9286
2023-05-21T12:39:31.442Z,25.0440
2023-05-21T12:40:32.965Z,24.4326
2023-05-21T12:41:34.338Z,24.4469
2023-05-21T12:42:34.826Z,24.4720
2023-05-21T12:43:36.268Z,23.8066
2023-05-21T12:44:38.672Z,24.3771
2023-05-21T12:45:41.312Z,25.0686
2023-05-21T12:46:41.456Z,24.7338
2023-05-21T12:53:50.399Z,25.7150
2023-05-21T12:54:51.718Z,24.7734
2023-05-21T12:55:53.638Z,24.9984
2023-05-21T12:56:56.234Z,25.3342
2023-05-21T12:57:56.972Z,25.1373
2023-05-21T12:59:57.670Z,23.7109
2023-05-21T13:00:59.434Z,23.7109
2023-05-21T13:01:59.631Z,24.8263
2023-05-21T13:03:59.608Z,25.6555
2023-05-21T13:04:59.908Z,25.2216
2023-05-21T13:06:01.987Z,24.3521
2023-05-21T13:07:04.824Z,24.7492
2023-05-21T13:08:04.769Z,25.8355
2023-05-21T13:09:06.382Z,25.9662
2023-05-21T13:10:07.946Z,24.4453
2023-05-21T13:11:10.676Z,24.4023
2023-05-21T13:12:12.726Z,24.2241
2023-05-21T13:14:14.275Z,25.1092
2023-05-21T13:20:19.178Z,25.5039
2023-05-21T13:21:21.089Z,25.5074
2023-05-21T13:22:22.024Z,24.5274
2023-05-21T13:23:24.881Z,24.2449
2023-05-21T13:28:28.155Z,24.3788
2023-05-21T13:29:30.051Z,23.6702
2023-05-21T13:30:30.944Z,23.8966
2023-05-21T13:31:32.742Z,24.3804
2023-05-21T13:32:33.204Z,25.0872
2023-05-21T13:33:35.151Z,24.2003
2023-05-21T13:34:36.150Z,23.7586
2023-05-21T13:35:36.214Z,24.9783
2023-05-21T13:36:37.081Z,25.0178
2023-05-21T13:37:37.064Z,25.0043
2023-05-21T13:38:38.549Z,25.8054
2023-05-21T13:39:39.766Z,26.7799
2023-05-21T13:40:40.365Z,27.5799
2023-05-21T13:41:41.054Z,26.3868
2023-05-21T13:42:41.143Z,26.4902
2023-05-21T13:43:43.686Z,25.3025
2023-05-21T13:44:44.478Z,25.8592
2023-05-21T13:51:51.492Z,24.6455
2023-05-21T13:52:53.676Z,24.4509
2023-05-21T13:53:55.602Z,24.5285
2023-05-21T13:54:55.013Z,24.1292
2023-05-21T13:56:55.412Z,24.4865
2023-05-21T13:57:56.058Z,24.0421
2023-05-21T13:58:56.588Z,23.9602
2023-05-21T13:59:57.246Z,24.2364
2023-05-21T14:01:59.854Z,24.9488
2023-05-21T14:03:01.594Z,25.1913
2023-05-21T14:04:02.243Z,24.9610
2023-05-21T14:05:05.218Z,24.6278
2023-05-21T14:06:06.327Z,24.7732
2023-05-21T14:07:07.600Z,24.8096
2023-05-21T14:09:10.876Z,26.4114
2023-05-21T14:10:12.544Z,26.4685
2023-05-21T14:11:12.852Z,26.2880
2023-05-21T14:12:14.869Z,26.0215
2023-05-21T14:13:19.970Z,25.9311
2023-05-21T14:14:17.532Z,26.8521
2023-05-21T14:15:18.379Z,25.3630
2023-05-21T14:16:20.289Z,25.2915
2023-05-21T14:17:22.433Z,26.4900
2023-05-21T14:18:23.842Z,27.0917
2023-05-21T14:19:24.873Z,25.7162
2023-05-21T14:20:24.889Z,25.9349
2023-05-21T14:21:26.389Z,26.1438
2023-05-21T14:22:26.641Z,26.2858
2023-05-21T14:24:34.361Z,26.5263
2023-05-21T14:29:33.162Z,26.0729
2023-05-21T14:30:33.921Z,26.4286
2023-05-21T14:31:36.092Z,25.6924
2023-05-21T14:32:36.693Z,25.3324
2023-05-21T14:33:37.706Z,25.0944
2023-05-21T14:36:41.983Z,26.4700
2023-05-21T14:37:42.604Z,26.2876
2023-05-21T14:38:43.844Z,25.8734
2023-05-21T14:40:44.101Z,25.9836
2023-05-21T14:41:46.106Z,25.9222
2023-05-21T14:42:48.212Z,26.4448
2023-05-21T14:43:48.786Z,27.0182
2023-05-21T14:44:49.304Z,26.9761
2023-05-21T14:45:50.683Z,26.9087
2023-05-21T14:46:50.703Z,26.2150
2023-05-21T14:47:52.088Z,25.4739
2023-05-21T14:48:53.881Z,26.4781
2023-05-21T14:49:54.844Z,26.0234
2023-05-21T14:50:56.292Z,26.5062
2023-05-21T14:51:58.223Z,25.3987
2023-05-21T14:52:58.546Z,24.8772
2023-05-21T14:53:59.084Z,24.1648
2023-05-21T14:55:01.129Z,24.3586
2023-05-21T14:56:01.144Z,23.8331
2023-05-21T14:57:01.416Z,23.7653
2023-05-21T14:58:03.507Z,23.3155
2023-05-21T14:59:04.958Z,23.5492
2023-05-21T15:00:05.535Z,23.7164
2023-05-21T15:01:06.407Z,23.9445
2023-05-21T15:02:07.193Z,23.8745
2023-05-21T15:03:07.728Z,23.5222
2023-05-21T15:04:08.336Z,24.0460
2023-05-21T15:05:09.552Z,24.4485
2023-05-21T15:07:10.864Z,24.4131
2023-05-21T15:08:12.244Z,24.3045
2023-05-21T15:09:12.991Z,24.0873
2023-05-21T15:10:16.598Z,24.0485
2023-05-21T15:11:16.900Z,24.0431
2023-05-21T15:12:18.317Z,24.1368
2023-05-21T15:14:20.312Z,24.5721
2023-05-21T15:15:20.936Z,25.1954
2023-05-21T15:16:22.220Z,24.8269
2023-05-21T15:18:25.734Z,25.3088
2023-05-21T15:19:26.252Z,26.0199
2023-05-21T15:20:27.090Z,26.3729
2023-05-21T15:21:29.107Z,26.5698
2023-05-21T15:22:30.497Z,27.3743
2023-05-21T15:24:32.649Z,27.9505
2023-05-21T15:25:33.867Z,27.4391
2023-05-21T15:26:34.694Z,27.9221
2023-05-21T15:27:35.573Z,28.0074
2023-05-21T15:28:37.500Z,28.3228
2023-05-21T15:29:38.171Z,28.7549
2023-05-21T15:30:38.886Z,28.8515
2023-05-21T15:31:39.429Z,28.5247
2023-05-21T15:33:40.622Z,27.5720
2023-05-21T15:34:40.662Z,29.5649
2023-05-21T15:35:43.661Z,27.4982
2023-05-21T15:37:44.808Z,27.2691
2023-05-21T15:38:45.262Z,27.4977
2023-05-21T15:40:47.909Z,28.0718
2023-05-21T15:41:49.017Z,28.3073
2023-05-21T15:42:49.641Z,29.5366
2023-05-21T15:43:51.318Z,29.9658
2023-05-21T15:44:52.238Z,29.6789
2023-05-21T15:45:53.266Z,28.4864
2023-05-21T15:46:53.084Z,27.2594
2023-05-21T15:47:54.240Z,26.8735
2023-05-21T15:48:55.948Z,27.3762
2023-05-21T15:49:58.132Z,28.5154
2023-05-21T15:50:58.632Z,27.6201
2023-05-21T15:51:59.981Z,28.2275
2023-05-21T15:53:01.720Z,29.2977
2023-05-21T15:57:34.196Z,26.5714
2023-05-21T15:58:39.025Z,26.3427
2023-05-21T16:07:44.528Z,29.6904
2023-05-21T16:08:45.977Z,27.8540
2023-05-21T16:09:48.290Z,27.4460
2023-05-21T16:10:50.265Z,27.5347
2023-05-21T16:11:52.180Z,26.9230
2023-05-21T16:12:52.363Z,26.9259
2023-05-21T16:13:54.178Z,26.7732
2023-05-21T16:18:30.409Z,26.2999
2023-05-21T16:19:32.836Z,26.1730
2023-05-21T16:21:34.212Z,27.2608
2023-05-21T16:22:34.794Z,26.9928
2023-05-21T16:23:36.510Z,26.9882
2023-05-21T16:24:37.947Z,26.7504
2023-05-21T16:25:39.996Z,25.7058
2023-05-21T16:26:41.814Z,25.8952
2023-05-21T16:28:44.506Z,24.6282
2023-05-21T16:29:46.394Z,24.1227
2023-05-21T16:30:45.976Z,24.1975
2023-05-21T16:31:47.549Z,24.5251
2023-05-21T16:32:48.790Z,24.5513
2023-05-21T16:33:49.688Z,24.8131
2023-05-21T16:34:51.241Z,24.6812
2023-05-21T16:35:54.156Z,24.8087
2023-05-21T16:36:57.166Z,24.9326
2023-05-21T16:38:58.103Z,25.8513
2023-05-21T16:39:59.634Z,26.1185
2023-05-21T16:40:59.644Z,25.9723
2023-05-21T16:42:02.393Z,25.5660
2023-05-21T16:43:04.338Z,25.2767
2023-05-21T16:52:44.730Z,25.6212
2023-05-21T16:53:44.938Z,26.2991
2023-05-21T16:55:48.190Z,26.4984
2023-05-21T16:56:48.555Z,27.2283
2023-05-21T16:58:50.476Z,26.5031
2023-05-21T17:00:51.370Z,25.1784
2023-05-21T17:01:52.005Z,24.4990
2023-05-21T17:03:53.140Z,24.5093
2023-05-21T17:04:52.999Z,24.3292
2023-05-21T17:05:54.769Z,24.8458
2023-05-21T17:06:57.010Z,24.7433
2023-05-21T17:14:06.492Z,23.2808
2023-05-21T17:15:06.942Z,23.0166
2023-05-21T17:16:07.059Z,22.9645
2023-05-21T17:17:09.139Z,22.6218
2023-05-21T17:18:10.979Z,22.5487
2023-05-21T17:19:12.157Z,22.5785
2023-05-21T17:20:13.398Z,22.4588
2023-05-21T17:21:15.180Z,22.6664